sensor_id;sensor_type;location;lat;lon;timestamp;temperature;humidity
15450;DHT22;7826;49.784;9.934;2022-12-15T00:01:25;-4.20;1.00
15450;DHT22;7826;49.784;9.934;2022-12-15T00:04:10;-4.20;1.00
15450;DHT22;7826;49.784;9.934;2022-12-15T00:06:55;-4.20;1.00
15450;DHT22;7826;49.784;9.934;2022-12-15T00:09:40;-4.20;1.00
15450;DHT22;7826;49.784;9.934;2022-12-15T00:12:25;-4.10;1.00
15450;DHT22;7826;49.784;9.934;2022-12-15T00:15:10;-4.10;1.00
15450;DHT22;7826;49.784;9.934;2022-12-15T00:17:55;-4.10;1.00
15450;DHT22;7826;49.784;9.934;2022-12-15T00:20:40;-4.10;1.00
15450;DHT22;7826;49.784;9.934;2022-12-15T00:23:24;-4.10;1.00
15450;DHT22;7826;49.784;9.934;2022-12-15T00:26:09;-4.10;1.00
15450;DHT22;7826;49.784;9.934;2022-12-15T00:28:54;-4.10;1.00
15450;DHT22;7826;49.784;9.934;2022-12-15T00:31:39;-4.10;1.00
15450;DHT22;7826;49.784;9.934;2022-12-15T00:34:25;-4.10;1.00
15450;DHT22;7826;49.784;9.934;2022-12-15T00:37:09;-4.10;1.00
15450;DHT22;7826;49.784;9.934;2022-12-15T00:39:54;-4.10;1.00
15450;DHT22;7826;49.784;9.934;2022-12-15T00:42:25;-4.10;1.00
15450;DHT22;7826;49.784;9.934;2022-12-15T00:44:55;-4.10;1.00
15450;DHT22;7826;49.784;9.934;2022-12-15T00:47:22;-4.10;1.00
15450;DHT22;7826;49.784;9.934;2022-12-15T00:49:49;-4.10;1.00
15450;DHT22;7826;49.784;9.934;2022-12-15T00:52:33;-4.00;1.00
15450;DHT22;7826;49.784;9.934;2022-12-15T00:55:18;-4.00;1.00
15450;DHT22;7826;49.784;9.934;2022-12-15T00:58:03;-4.00;1.00
15450;DHT22;7826;49.784;9.934;2022-12-15T01:00:48;-4.00;1.00
15450;DHT22;7826;49.784;9.934;2022-12-15T01:03:33;-4.00;1.00
15450;DHT22;7826;49.784;9.934;2022-12-15T01:06:19;-4.00;1.00
15450;DHT22;7826;49.784;9.934;2022-12-15T01:09:06;-3.90;1.00
15450;DHT22;7826;49.784;9.934;2022-12-15T01:11:52;-4.00;1.00
15450;DHT22;7826;49.784;9.934;2022-12-15T01:14:37;-4.00;1.00
15450;DHT22;7826;49.784;9.934;2022-12-15T01:17:22;-4.10;1.00
15450;DHT22;7826;49.784;9.934;2022-12-15T01:20:08;-4.10;1.00
15450;DHT22;7826;49.784;9.934;2022-12-15T01:22:41;-4.20;1.00
15450;DHT22;7826;49.784;9.934;2022-12-15T01:25:09;-4.20;1.00
15450;DHT22;7826;49.784;9.934;2022-12-15T01:27:36;-4.20;1.00
15450;DHT22;7826;49.784;9.934;2022-12-15T01:30:03;-4.20;1.00
15450;DHT22;7826;49.784;9.934;2022-12-15T01:32:30;-4.20;1.00
15450;DHT22;7826;49.784;9.934;2022-12-15T01:34:56;-4.10;1.00
15450;DHT22;7826;49.784;9.934;2022-12-15T01:37:23;-4.10;1.00
15450;DHT22;7826;49.784;9.934;2022-12-15T01:39:49;-4.10;1.00
15450;DHT22;7826;49.784;9.934;2022-12-15T01:42:34;-4.10;1.00
15450;DHT22;7826;49.784;9.934;2022-12-15T01:45:32;-4.00;1.00
15450;DHT22;7826;49.784;9.934;2022-12-15T01:48:05;-4.00;1.00
15450;DHT22;7826;49.784;9.934;2022-12-15T01:50:38;-3.90;1.00
15450;DHT22;7826;49.784;9.934;2022-12-15T01:53:06;-3.90;1.00
15450;DHT22;7826;49.784;9.934;2022-12-15T01:55:33;-3.90;1.00
15450;DHT22;7826;49.784;9.934;2022-12-15T01:58:04;-3.90;1.00
15450;DHT22;7826;49.784;9.934;2022-12-15T02:00:32;-3.90;1.00
15450;DHT22;7826;49.784;9.934;2022-12-15T02:03:00;-3.90;1.00
15450;DHT22;7826;49.784;9.934;2022-12-15T02:05:29;-3.90;1.00
15450;DHT22;7826;49.784;9.934;2022-12-15T02:07:58;-3.90;1.00
15450;DHT22;7826;49.784;9.934;2022-12-15T02:14:01;-3.80;1.00
15450;DHT22;7826;49.784;9.934;2022-12-15T02:16:54;-3.80;1.00
15450;DHT22;7826;49.784;9.934;2022-12-15T02:22:16;-3.80;1.00
15450;DHT22;7826;49.784;9.934;2022-12-15T02:38:11;-3.80;1.00
15450;DHT22;7826;49.784;9.934;2022-12-15T02:40:38;-3.80;1.00
15450;DHT22;7826;49.784;9.934;2022-12-15T02:43:07;-3.80;1.00
15450;DHT22;7826;49.784;9.934;2022-12-15T02:45:51;-3.90;1.00
15450;DHT22;7826;49.784;9.934;2022-12-15T02:53:51;-3.80;1.00
15450;DHT22;7826;49.784;9.934;2022-12-15T02:59:23;-3.80;1.00
15450;DHT22;7826;49.784;9.934;2022-12-15T03:01:59;-3.80;1.00
15450;DHT22;7826;49.784;9.934;2022-12-15T03:04:28;-3.80;1.00
15450;DHT22;7826;49.784;9.934;2022-12-15T03:07:08;-3.80;1.00
15450;DHT22;7826;49.784;9.934;2022-12-15T03:09:35;-3.80;1.00
15450;DHT22;7826;49.784;9.934;2022-12-15T03:12:01;-3.80;1.00
15450;DHT22;7826;49.784;9.934;2022-12-15T03:14:27;-3.70;1.00
15450;DHT22;7826;49.784;9.934;2022-12-15T03:16:54;-3.70;1.00
15450;DHT22;7826;49.784;9.934;2022-12-15T03:19:20;-3.70;1.00
15450;DHT22;7826;49.784;9.934;2022-12-15T03:21:46;-3.70;1.00
15450;DHT22;7826;49.784;9.934;2022-12-15T03:24:13;-3.70;1.00
15450;DHT22;7826;49.784;9.934;2022-12-15T03:26:39;-3.60;1.00
15450;DHT22;7826;49.784;9.934;2022-12-15T03:29:05;-3.60;1.00
15450;DHT22;7826;49.784;9.934;2022-12-15T03:31:31;-3.60;1.00
15450;DHT22;7826;49.784;9.934;2022-12-15T03:33:58;-3.60;1.00
15450;DHT22;7826;49.784;9.934;2022-12-15T03:36:25;-3.60;1.00
15450;DHT22;7826;49.784;9.934;2022-12-15T03:38:52;-3.60;1.00
15450;DHT22;7826;49.784;9.934;2022-12-15T03:41:18;-3.60;1.00
15450;DHT22;7826;49.784;9.934;2022-12-15T03:43:45;-3.50;1.00
15450;DHT22;7826;49.784;9.934;2022-12-15T03:46:11;-3.60;1.00
15450;DHT22;7826;49.784;9.934;2022-12-15T03:48:37;-3.50;1.00
15450;DHT22;7826;49.784;9.934;2022-12-15T03:51:04;-3.50;1.00
15450;DHT22;7826;49.784;9.934;2022-12-15T03:53:30;-3.50;1.00
15450;DHT22;7826;49.784;9.934;2022-12-15T03:55:57;-3.50;1.00
15450;DHT22;7826;49.784;9.934;2022-12-15T03:58:23;-3.50;1.00
15450;DHT22;7826;49.784;9.934;2022-12-15T04:00:49;-3.50;1.00
15450;DHT22;7826;49.784;9.934;2022-12-15T04:03:16;-3.50;1.00
15450;DHT22;7826;49.784;9.934;2022-12-15T04:05:42;-3.50;1.00
15450;DHT22;7826;49.784;9.934;2022-12-15T04:08:08;-3.50;1.00
15450;DHT22;7826;49.784;9.934;2022-12-15T04:10:35;-3.50;1.00
15450;DHT22;7826;49.784;9.934;2022-12-15T04:13:06;-3.50;1.00
15450;DHT22;7826;49.784;9.934;2022-12-15T04:15:34;-3.50;1.00
15450;DHT22;7826;49.784;9.934;2022-12-15T04:18:06;-3.50;1.00
15450;DHT22;7826;49.784;9.934;2022-12-15T04:20:50;-3.50;1.00
15450;DHT22;7826;49.784;9.934;2022-12-15T04:23:16;-3.50;1.00
15450;DHT22;7826;49.784;9.934;2022-12-15T04:25:42;-3.50;1.00
15450;DHT22;7826;49.784;9.934;2022-12-15T04:28:27;-3.50;1.00
15450;DHT22;7826;49.784;9.934;2022-12-15T04:31:15;-3.50;1.00
15450;DHT22;7826;49.784;9.934;2022-12-15T04:34:04;-3.50;1.00
15450;DHT22;7826;49.784;9.934;2022-12-15T04:36:51;-3.50;1.00
15450;DHT22;7826;49.784;9.934;2022-12-15T04:39:49;-3.50;1.00
15450;DHT22;7826;49.784;9.934;2022-12-15T04:42:38;-3.60;1.00
15450;DHT22;7826;49.784;9.934;2022-12-15T04:45:24;-3.60;1.00
15450;DHT22;7826;49.784;9.934;2022-12-15T04:48:09;-3.60;1.00
15450;DHT22;7826;49.784;9.934;2022-12-15T04:50:55;-3.60;1.00
15450;DHT22;7826;49.784;9.934;2022-12-15T04:53:42;-3.60;1.00
15450;DHT22;7826;49.784;9.934;2022-12-15T04:56:27;-3.60;1.00
15450;DHT22;7826;49.784;9.934;2022-12-15T04:59:12;-3.60;1.00
15450;DHT22;7826;49.784;9.934;2022-12-15T05:01:57;-3.70;1.00
15450;DHT22;7826;49.784;9.934;2022-12-15T05:04:42;-3.70;1.00
15450;DHT22;7826;49.784;9.934;2022-12-15T05:07:27;-3.70;1.00
15450;DHT22;7826;49.784;9.934;2022-12-15T05:10:12;-3.70;1.00
15450;DHT22;7826;49.784;9.934;2022-12-15T05:13:04;-3.60;1.00
15450;DHT22;7826;49.784;9.934;2022-12-15T05:15:49;-3.70;1.00
15450;DHT22;7826;49.784;9.934;2022-12-15T05:18:34;-3.60;1.00
15450;DHT22;7826;49.784;9.934;2022-12-15T05:21:19;-3.60;1.00
15450;DHT22;7826;49.784;9.934;2022-12-15T05:24:04;-3.60;1.00
15450;DHT22;7826;49.784;9.934;2022-12-15T05:26:49;-3.60;1.00
15450;DHT22;7826;49.784;9.934;2022-12-15T05:29:34;-3.60;1.00
15450;DHT22;7826;49.784;9.934;2022-12-15T05:32:19;-3.60;1.00
15450;DHT22;7826;49.784;9.934;2022-12-15T05:34:46;-3.60;1.00
15450;DHT22;7826;49.784;9.934;2022-12-15T05:37:13;-3.60;1.00
15450;DHT22;7826;49.784;9.934;2022-12-15T05:39:39;-3.60;1.00
15450;DHT22;7826;49.784;9.934;2022-12-15T05:42:05;-3.60;1.00
15450;DHT22;7826;49.784;9.934;2022-12-15T05:44:32;-3.60;1.00
15450;DHT22;7826;49.784;9.934;2022-12-15T05:46:58;-3.60;1.00
15450;DHT22;7826;49.784;9.934;2022-12-15T05:49:24;-3.70;1.00
15450;DHT22;7826;49.784;9.934;2022-12-15T05:51:51;-3.60;1.00
15450;DHT22;7826;49.784;9.934;2022-12-15T05:54:18;-3.70;1.00
15450;DHT22;7826;49.784;9.934;2022-12-15T05:56:46;-3.70;1.00
15450;DHT22;7826;49.784;9.934;2022-12-15T05:59:14;-3.70;1.00
15450;DHT22;7826;49.784;9.934;2022-12-15T06:01:40;-3.80;1.00
15450;DHT22;7826;49.784;9.934;2022-12-15T06:04:09;-3.70;1.00
15450;DHT22;7826;49.784;9.934;2022-12-15T06:06:37;-3.70;1.00
15450;DHT22;7826;49.784;9.934;2022-12-15T06:09:04;-3.80;1.00
15450;DHT22;7826;49.784;9.934;2022-12-15T06:11:30;-3.80;1.00
15450;DHT22;7826;49.784;9.934;2022-12-15T06:13:57;-3.80;1.00
15450;DHT22;7826;49.784;9.934;2022-12-15T06:16:24;-3.70;1.00
15450;DHT22;7826;49.784;9.934;2022-12-15T06:18:55;-3.70;1.00
15450;DHT22;7826;49.784;9.934;2022-12-15T06:21:25;-3.70;1.00
15450;DHT22;7826;49.784;9.934;2022-12-15T06:23:52;-3.70;1.00
15450;DHT22;7826;49.784;9.934;2022-12-15T06:28:46;-3.80;1.00
15450;DHT22;7826;49.784;9.934;2022-12-15T06:31:14;-3.80;1.00
15450;DHT22;7826;49.784;9.934;2022-12-15T06:33:41;-3.90;1.00
15450;DHT22;7826;49.784;9.934;2022-12-15T06:36:13;-4.00;1.00
15450;DHT22;7826;49.784;9.934;2022-12-15T06:38:40;-4.00;1.00
15450;DHT22;7826;49.784;9.934;2022-12-15T06:41:14;-4.00;1.00
15450;DHT22;7826;49.784;9.934;2022-12-15T06:43:41;-4.10;1.00
15450;DHT22;7826;49.784;9.934;2022-12-15T06:46:07;-4.20;1.00
15450;DHT22;7826;49.784;9.934;2022-12-15T06:48:35;-4.20;1.00
15450;DHT22;7826;49.784;9.934;2022-12-15T06:51:03;-4.30;1.00
15450;DHT22;7826;49.784;9.934;2022-12-15T06:53:30;-4.30;1.00
15450;DHT22;7826;49.784;9.934;2022-12-15T06:56:05;-4.30;1.00
15450;DHT22;7826;49.784;9.934;2022-12-15T06:58:32;-4.30;1.00
15450;DHT22;7826;49.784;9.934;2022-12-15T07:01:05;-4.30;1.00
15450;DHT22;7826;49.784;9.934;2022-12-15T07:03:34;-4.40;1.00
15450;DHT22;7826;49.784;9.934;2022-12-15T07:06:06;-4.50;1.00
15450;DHT22;7826;49.784;9.934;2022-12-15T07:08:33;-4.50;1.00
15450;DHT22;7826;49.784;9.934;2022-12-15T07:11:02;-4.50;1.00
15450;DHT22;7826;49.784;9.934;2022-12-15T07:13:29;-4.50;1.00
15450;DHT22;7826;49.784;9.934;2022-12-15T07:16:03;-4.60;1.00
15450;DHT22;7826;49.784;9.934;2022-12-15T07:18:30;-4.60;1.00
15450;DHT22;7826;49.784;9.934;2022-12-15T07:21:05;-4.60;1.00
15450;DHT22;7826;49.784;9.934;2022-12-15T07:23:32;-4.70;1.00
15450;DHT22;7826;49.784;9.934;2022-12-15T07:26:03;-4.70;1.00
15450;DHT22;7826;49.784;9.934;2022-12-15T07:28:30;-4.70;1.00
15450;DHT22;7826;49.784;9.934;2022-12-15T07:31:01;-4.70;1.00
15450;DHT22;7826;49.784;9.934;2022-12-15T07:33:28;-4.80;1.00
15450;DHT22;7826;49.784;9.934;2022-12-15T07:35:56;-4.80;1.00
15450;DHT22;7826;49.784;9.934;2022-12-15T07:38:22;-4.80;1.00
15450;DHT22;7826;49.784;9.934;2022-12-15T07:40:48;-4.80;1.00
15450;DHT22;7826;49.784;9.934;2022-12-15T07:43:15;-4.80;1.00
15450;DHT22;7826;49.784;9.934;2022-12-15T07:45:41;-4.80;1.00
15450;DHT22;7826;49.784;9.934;2022-12-15T07:48:07;-4.70;1.00
15450;DHT22;7826;49.784;9.934;2022-12-15T07:50:37;-4.60;1.00
15450;DHT22;7826;49.784;9.934;2022-12-15T07:53:04;-4.40;1.00
15450;DHT22;7826;49.784;9.934;2022-12-15T07:55:31;-4.30;1.00
15450;DHT22;7826;49.784;9.934;2022-12-15T07:57:57;-4.00;1.00
15450;DHT22;7826;49.784;9.934;2022-12-15T08:00:23;-3.90;1.00
15450;DHT22;7826;49.784;9.934;2022-12-15T08:02:50;-3.60;1.00
15450;DHT22;7826;49.784;9.934;2022-12-15T08:05:16;-3.50;1.00
15450;DHT22;7826;49.784;9.934;2022-12-15T08:07:43;-3.30;1.00
15450;DHT22;7826;49.784;9.934;2022-12-15T08:10:09;-3.10;99.90
15450;DHT22;7826;49.784;9.934;2022-12-15T08:12:35;-3.10;99.90
15450;DHT22;7826;49.784;9.934;2022-12-15T08:15:02;-2.60;1.00
15450;DHT22;7826;49.784;9.934;2022-12-15T08:17:28;-1.90;1.00
15450;DHT22;7826;49.784;9.934;2022-12-15T08:19:54;-1.30;1.00
15450;DHT22;7826;49.784;9.934;2022-12-15T08:22:21;-0.80;99.90
15450;DHT22;7826;49.784;9.934;2022-12-15T08:24:47;-0.40;99.90
15450;DHT22;7826;49.784;9.934;2022-12-15T08:27:13;0.20;99.90
15450;DHT22;7826;49.784;9.934;2022-12-15T08:29:40;0.70;99.90
15450;DHT22;7826;49.784;9.934;2022-12-15T08:32:07;1.00;99.90
15450;DHT22;7826;49.784;9.934;2022-12-15T08:34:33;1.20;99.90
15450;DHT22;7826;49.784;9.934;2022-12-15T08:37:00;1.50;99.90
15450;DHT22;7826;49.784;9.934;2022-12-15T08:39:27;1.60;99.90
15450;DHT22;7826;49.784;9.934;2022-12-15T08:41:54;1.40;99.90
15450;DHT22;7826;49.784;9.934;2022-12-15T08:44:21;0.70;99.90
15450;DHT22;7826;49.784;9.934;2022-12-15T08:46:47;0.20;99.90
15450;DHT22;7826;49.784;9.934;2022-12-15T08:49:14;0.30;99.90
15450;DHT22;7826;49.784;9.934;2022-12-15T08:51:40;0.50;99.90
15450;DHT22;7826;49.784;9.934;2022-12-15T08:54:07;0.10;99.90
15450;DHT22;7826;49.784;9.934;2022-12-15T08:56:34;-0.50;99.90
15450;DHT22;7826;49.784;9.934;2022-12-15T08:59:01;-0.90;99.90
15450;DHT22;7826;49.784;9.934;2022-12-15T09:01:29;-1.00;99.90
15450;DHT22;7826;49.784;9.934;2022-12-15T09:03:57;-0.60;99.90
15450;DHT22;7826;49.784;9.934;2022-12-15T09:06:29;0.00;99.90
15450;DHT22;7826;49.784;9.934;2022-12-15T09:08:57;0.00;99.90
15450;DHT22;7826;49.784;9.934;2022-12-15T09:11:25;0.20;99.90
15450;DHT22;7826;49.784;9.934;2022-12-15T09:13:51;0.10;99.90
15450;DHT22;7826;49.784;9.934;2022-12-15T09:16:18;-0.30;99.90
15450;DHT22;7826;49.784;9.934;2022-12-15T09:18:51;-0.40;99.90
15450;DHT22;7826;49.784;9.934;2022-12-15T09:21:19;-0.60;99.90
15450;DHT22;7826;49.784;9.934;2022-12-15T09:23:48;-0.80;99.90
15450;DHT22;7826;49.784;9.934;2022-12-15T09:26:18;-1.00;99.90
15450;DHT22;7826;49.784;9.934;2022-12-15T09:28:44;-1.40;99.90
15450;DHT22;7826;49.784;9.934;2022-12-15T09:31:16;-1.70;99.90
15450;DHT22;7826;49.784;9.934;2022-12-15T09:33:46;-2.00;99.90
15450;DHT22;7826;49.784;9.934;2022-12-15T09:36:12;-2.10;99.90
15450;DHT22;7826;49.784;9.934;2022-12-15T09:38:40;-2.20;99.90
15450;DHT22;7826;49.784;9.934;2022-12-15T09:43:54;-2.60;99.90
15450;DHT22;7826;49.784;9.934;2022-12-15T09:46:29;-2.60;99.90
15450;DHT22;7826;49.784;9.934;2022-12-15T09:49:02;-2.60;99.90
15450;DHT22;7826;49.784;9.934;2022-12-15T09:51:38;-2.70;99.90
15450;DHT22;7826;49.784;9.934;2022-12-15T09:54:06;-2.80;99.90
15450;DHT22;7826;49.784;9.934;2022-12-15T09:56:54;-2.90;99.90
15450;DHT22;7826;49.784;9.934;2022-12-15T10:07:44;-2.60;99.90
15450;DHT22;7826;49.784;9.934;2022-12-15T10:10:24;-2.60;99.90
15450;DHT22;7826;49.784;9.934;2022-12-15T10:12:56;-2.60;99.90
15450;DHT22;7826;49.784;9.934;2022-12-15T10:15:26;-2.60;99.90
15450;DHT22;7826;49.784;9.934;2022-12-15T10:18:05;-2.60;99.90
15450;DHT22;7826;49.784;9.934;2022-12-15T10:20:37;-2.60;99.90
15450;DHT22;7826;49.784;9.934;2022-12-15T10:23:15;-2.50;99.90
15450;DHT22;7826;49.784;9.934;2022-12-15T10:26:38;-2.40;99.90
15450;DHT22;7826;49.784;9.934;2022-12-15T10:32:00;-2.30;99.90
15450;DHT22;7826;49.784;9.934;2022-12-15T10:34:35;-2.20;99.90
15450;DHT22;7826;49.784;9.934;2022-12-15T10:37:03;-2.20;99.90
15450;DHT22;7826;49.784;9.934;2022-12-15T10:39:40;-2.20;99.90
15450;DHT22;7826;49.784;9.934;2022-12-15T10:42:21;-2.20;99.90
15450;DHT22;7826;49.784;9.934;2022-12-15T10:44:54;-2.20;99.90
15450;DHT22;7826;49.784;9.934;2022-12-15T10:49:49;-2.10;99.90
15450;DHT22;7826;49.784;9.934;2022-12-15T10:52:26;-2.10;99.90
15450;DHT22;7826;49.784;9.934;2022-12-15T10:54:57;-2.00;99.90
15450;DHT22;7826;49.784;9.934;2022-12-15T10:57:24;-1.90;99.90
15450;DHT22;7826;49.784;9.934;2022-12-15T11:02:40;-2.00;99.90
15450;DHT22;7826;49.784;9.934;2022-12-15T11:07:41;-2.10;99.90
15450;DHT22;7826;49.784;9.934;2022-12-15T11:13:16;-2.10;99.90
15450;DHT22;7826;49.784;9.934;2022-12-15T11:15:53;-2.20;99.90
15450;DHT22;7826;49.784;9.934;2022-12-15T11:21:10;-2.10;99.90
15450;DHT22;7826;49.784;9.934;2022-12-15T11:29:14;-1.90;99.90
15450;DHT22;7826;49.784;9.934;2022-12-15T11:31:44;-1.90;99.90
15450;DHT22;7826;49.784;9.934;2022-12-15T11:34:18;-1.80;99.90
15450;DHT22;7826;49.784;9.934;2022-12-15T11:42:05;-1.60;99.90
15450;DHT22;7826;49.784;9.934;2022-12-15T11:44:58;-1.80;99.90
15450;DHT22;7826;49.784;9.934;2022-12-15T11:47:34;-1.80;99.90
15450;DHT22;7826;49.784;9.934;2022-12-15T11:55:48;-1.70;99.90
15450;DHT22;7826;49.784;9.934;2022-12-15T11:58:34;-1.70;99.90
15450;DHT22;7826;49.784;9.934;2022-12-15T12:01:23;-1.70;99.90
15450;DHT22;7826;49.784;9.934;2022-12-15T12:04:07;-1.70;99.90
15450;DHT22;7826;49.784;9.934;2022-12-15T12:12:23;-1.90;99.90
15450;DHT22;7826;49.784;9.934;2022-12-15T12:17:30;-1.80;99.90
15450;DHT22;7826;49.784;9.934;2022-12-15T12:20:07;-1.90;99.90
15450;DHT22;7826;49.784;9.934;2022-12-15T12:23:07;-1.90;99.90
15450;DHT22;7826;49.784;9.934;2022-12-15T12:25:35;-1.70;99.90
15450;DHT22;7826;49.784;9.934;2022-12-15T12:28:21;-1.80;99.90
15450;DHT22;7826;49.784;9.934;2022-12-15T12:30:49;-1.80;99.90
15450;DHT22;7826;49.784;9.934;2022-12-15T12:36:09;-1.80;99.90
15450;DHT22;7826;49.784;9.934;2022-12-15T12:38:52;-1.90;99.90
15450;DHT22;7826;49.784;9.934;2022-12-15T12:43:53;-1.80;99.90
15450;DHT22;7826;49.784;9.934;2022-12-15T12:46:33;-1.70;99.90
15450;DHT22;7826;49.784;9.934;2022-12-15T12:49:31;-1.70;99.90
15450;DHT22;7826;49.784;9.934;2022-12-15T12:52:00;-1.70;99.90
15450;DHT22;7826;49.784;9.934;2022-12-15T12:54:40;-1.80;99.90
15450;DHT22;7826;49.784;9.934;2022-12-15T12:59:42;-1.80;99.90
15450;DHT22;7826;49.784;9.934;2022-12-15T13:07:33;-2.00;99.90
15450;DHT22;7826;49.784;9.934;2022-12-15T13:18:06;-2.00;99.90
15450;DHT22;7826;49.784;9.934;2022-12-15T13:20:35;-2.00;99.90
15450;DHT22;7826;49.784;9.934;2022-12-15T13:41:43;-2.00;99.90
15450;DHT22;7826;49.784;9.934;2022-12-15T13:44:47;-2.10;99.90
15450;DHT22;7826;49.784;9.934;2022-12-15T13:47:28;-2.20;99.90
15450;DHT22;7826;49.784;9.934;2022-12-15T13:52:40;-2.30;99.90
15450;DHT22;7826;49.784;9.934;2022-12-15T13:55:17;-2.30;99.90
15450;DHT22;7826;49.784;9.934;2022-12-15T14:00:30;-2.20;99.90
15450;DHT22;7826;49.784;9.934;2022-12-15T14:03:10;-2.20;99.90
15450;DHT22;7826;49.784;9.934;2022-12-15T14:05:38;-2.20;99.90
15450;DHT22;7826;49.784;9.934;2022-12-15T14:08:12;-2.20;99.90
15450;DHT22;7826;49.784;9.934;2022-12-15T14:10:51;-2.20;99.90
15450;DHT22;7826;49.784;9.934;2022-12-15T14:15:57;-2.20;99.90
15450;DHT22;7826;49.784;9.934;2022-12-15T14:18:36;-2.10;99.90
15450;DHT22;7826;49.784;9.934;2022-12-15T14:21:06;-2.10;99.90
15450;DHT22;7826;49.784;9.934;2022-12-15T14:23:41;-2.20;99.90
15450;DHT22;7826;49.784;9.934;2022-12-15T14:26:09;-2.20;99.90
15450;DHT22;7826;49.784;9.934;2022-12-15T14:28:40;-2.30;99.90
15450;DHT22;7826;49.784;9.934;2022-12-15T14:31:20;-2.30;99.90
15450;DHT22;7826;49.784;9.934;2022-12-15T14:33:50;-2.30;99.90
15450;DHT22;7826;49.784;9.934;2022-12-15T14:36:19;-2.30;99.90
15450;DHT22;7826;49.784;9.934;2022-12-15T14:38:51;-2.40;99.90
15450;DHT22;7826;49.784;9.934;2022-12-15T14:41:46;-2.40;99.90
15450;DHT22;7826;49.784;9.934;2022-12-15T14:44:34;-2.40;99.90
15450;DHT22;7826;49.784;9.934;2022-12-15T14:47:02;-2.40;99.90
15450;DHT22;7826;49.784;9.934;2022-12-15T14:49:36;-2.40;99.90
15450;DHT22;7826;49.784;9.934;2022-12-15T14:52:05;-2.50;99.90
15450;DHT22;7826;49.784;9.934;2022-12-15T14:54:35;-2.50;99.90
15450;DHT22;7826;49.784;9.934;2022-12-15T14:57:14;-2.60;99.90
15450;DHT22;7826;49.784;9.934;2022-12-15T14:59:43;-2.50;99.90
15450;DHT22;7826;49.784;9.934;2022-12-15T15:02:11;-2.60;99.90
15450;DHT22;7826;49.784;9.934;2022-12-15T15:04:38;-2.60;99.90
15450;DHT22;7826;49.784;9.934;2022-12-15T15:07:12;-2.60;99.90
15450;DHT22;7826;49.784;9.934;2022-12-15T15:09:41;-2.60;99.90
15450;DHT22;7826;49.784;9.934;2022-12-15T15:15:02;-2.60;99.90
15450;DHT22;7826;49.784;9.934;2022-12-15T15:17:38;-2.60;99.90
15450;DHT22;7826;49.784;9.934;2022-12-15T15:20:34;-2.60;99.90
15450;DHT22;7826;49.784;9.934;2022-12-15T15:25:36;-2.70;99.90
15450;DHT22;7826;49.784;9.934;2022-12-15T15:28:19;-2.70;99.90
15450;DHT22;7826;49.784;9.934;2022-12-15T15:30:50;-2.70;99.90
15450;DHT22;7826;49.784;9.934;2022-12-15T15:33:17;-2.70;99.90
15450;DHT22;7826;49.784;9.934;2022-12-15T15:35:51;-2.60;99.90
15450;DHT22;7826;49.784;9.934;2022-12-15T15:38:31;-2.70;99.90
15450;DHT22;7826;49.784;9.934;2022-12-15T15:41:01;-2.70;99.90
15450;DHT22;7826;49.784;9.934;2022-12-15T15:43:28;-2.60;99.90
15450;DHT22;7826;49.784;9.934;2022-12-15T15:46:09;-2.60;99.90
15450;DHT22;7826;49.784;9.934;2022-12-15T15:48:50;-2.70;99.90
15450;DHT22;7826;49.784;9.934;2022-12-15T15:51:18;-2.70;99.90
15450;DHT22;7826;49.784;9.934;2022-12-15T15:53:45;-2.70;99.90
15450;DHT22;7826;49.784;9.934;2022-12-15T15:56:14;-2.70;99.90
15450;DHT22;7826;49.784;9.934;2022-12-15T15:58:42;-2.70;99.90
15450;DHT22;7826;49.784;9.934;2022-12-15T16:01:09;-2.70;99.90
15450;DHT22;7826;49.784;9.934;2022-12-15T16:03:36;-2.70;99.90
15450;DHT22;7826;49.784;9.934;2022-12-15T16:06:04;-2.70;99.90
15450;DHT22;7826;49.784;9.934;2022-12-15T16:08:34;-2.70;99.90
15450;DHT22;7826;49.784;9.934;2022-12-15T16:11:01;-2.60;99.90
15450;DHT22;7826;49.784;9.934;2022-12-15T16:13:28;-2.70;99.90
15450;DHT22;7826;49.784;9.934;2022-12-15T16:15:54;-2.60;99.90
15450;DHT22;7826;49.784;9.934;2022-12-15T16:18:20;-2.60;99.90
15450;DHT22;7826;49.784;9.934;2022-12-15T16:20:49;-2.50;99.90
15450;DHT22;7826;49.784;9.934;2022-12-15T16:23:22;-2.50;99.90
15450;DHT22;7826;49.784;9.934;2022-12-15T16:25:56;-2.50;99.90
15450;DHT22;7826;49.784;9.934;2022-12-15T16:28:28;-2.50;99.90
15450;DHT22;7826;49.784;9.934;2022-12-15T16:30:56;-2.50;99.90
15450;DHT22;7826;49.784;9.934;2022-12-15T16:33:24;-2.50;99.90
15450;DHT22;7826;49.784;9.934;2022-12-15T16:35:50;-2.50;99.90
15450;DHT22;7826;49.784;9.934;2022-12-15T16:38:26;-2.40;99.90
15450;DHT22;7826;49.784;9.934;2022-12-15T16:40:54;-2.40;99.90
15450;DHT22;7826;49.784;9.934;2022-12-15T16:43:23;-2.50;99.90
15450;DHT22;7826;49.784;9.934;2022-12-15T16:45:51;-2.60;99.90
15450;DHT22;7826;49.784;9.934;2022-12-15T16:48:18;-2.50;99.90
15450;DHT22;7826;49.784;9.934;2022-12-15T16:50:49;-2.70;99.90
15450;DHT22;7826;49.784;9.934;2022-12-15T16:53:22;-2.70;99.90
15450;DHT22;7826;49.784;9.934;2022-12-15T16:55:54;-2.80;99.90
15450;DHT22;7826;49.784;9.934;2022-12-15T16:58:22;-2.80;99.90
15450;DHT22;7826;49.784;9.934;2022-12-15T17:00:50;-2.80;99.90
15450;DHT22;7826;49.784;9.934;2022-12-15T17:03:18;-2.80;99.90
15450;DHT22;7826;49.784;9.934;2022-12-15T17:05:48;-2.80;99.90
15450;DHT22;7826;49.784;9.934;2022-12-15T17:08:23;-2.70;99.90
15450;DHT22;7826;49.784;9.934;2022-12-15T17:10:50;-2.80;99.90
15450;DHT22;7826;49.784;9.934;2022-12-15T17:13:41;-2.80;99.90
15450;DHT22;7826;49.784;9.934;2022-12-15T17:16:09;-2.90;99.90
15450;DHT22;7826;49.784;9.934;2022-12-15T17:18:39;-2.80;99.90
15450;DHT22;7826;49.784;9.934;2022-12-15T17:21:13;-2.80;99.90
15450;DHT22;7826;49.784;9.934;2022-12-15T17:23:43;-2.80;99.90
15450;DHT22;7826;49.784;9.934;2022-12-15T17:26:27;-2.80;99.90
15450;DHT22;7826;49.784;9.934;2022-12-15T17:28:59;-2.90;99.90
15450;DHT22;7826;49.784;9.934;2022-12-15T17:31:26;-3.10;99.90
15450;DHT22;7826;49.784;9.934;2022-12-15T17:33:52;-2.90;99.90
15450;DHT22;7826;49.784;9.934;2022-12-15T17:36:21;-2.90;99.90
15450;DHT22;7826;49.784;9.934;2022-12-15T17:38:59;-2.90;99.90
15450;DHT22;7826;49.784;9.934;2022-12-15T17:41:27;-2.90;99.90
15450;DHT22;7826;49.784;9.934;2022-12-15T17:43:53;-2.90;99.90
15450;DHT22;7826;49.784;9.934;2022-12-15T17:46:20;-2.90;99.90
15450;DHT22;7826;49.784;9.934;2022-12-15T17:48:46;-2.90;99.90
15450;DHT22;7826;49.784;9.934;2022-12-15T17:51:17;-2.80;99.90
15450;DHT22;7826;49.784;9.934;2022-12-15T17:53:46;-2.90;99.90
15450;DHT22;7826;49.784;9.934;2022-12-15T17:56:15;-2.90;99.90
15450;DHT22;7826;49.784;9.934;2022-12-15T17:58:42;-2.80;99.90
15450;DHT22;7826;49.784;9.934;2022-12-15T18:01:12;-2.80;99.90
15450;DHT22;7826;49.784;9.934;2022-12-15T18:03:39;-2.80;99.90
15450;DHT22;7826;49.784;9.934;2022-12-15T18:06:11;-2.80;99.90
15450;DHT22;7826;49.784;9.934;2022-12-15T18:08:38;-2.80;99.90
15450;DHT22;7826;49.784;9.934;2022-12-15T18:11:08;-2.80;99.90
15450;DHT22;7826;49.784;9.934;2022-12-15T18:13:38;-2.80;99.90
15450;DHT22;7826;49.784;9.934;2022-12-15T18:16:05;-2.70;99.90
15450;DHT22;7826;49.784;9.934;2022-12-15T18:18:31;-2.70;99.90
15450;DHT22;7826;49.784;9.934;2022-12-15T18:21:07;-2.70;99.90
15450;DHT22;7826;49.784;9.934;2022-12-15T18:23:36;-2.70;99.90
15450;DHT22;7826;49.784;9.934;2022-12-15T18:26:03;-2.70;99.90
15450;DHT22;7826;49.784;9.934;2022-12-15T18:28:31;-2.60;99.90
15450;DHT22;7826;49.784;9.934;2022-12-15T18:31:24;-2.60;99.90
15450;DHT22;7826;49.784;9.934;2022-12-15T18:33:52;-2.60;99.90
15450;DHT22;7826;49.784;9.934;2022-12-15T18:36:21;-2.70;99.90
15450;DHT22;7826;49.784;9.934;2022-12-15T18:38:48;-2.80;99.90
15450;DHT22;7826;49.784;9.934;2022-12-15T18:41:17;-2.70;99.90
15450;DHT22;7826;49.784;9.934;2022-12-15T18:43:45;-2.70;99.90
15450;DHT22;7826;49.784;9.934;2022-12-15T18:46:13;-2.70;99.90